Time;durP1;ratioP1;P1;durP2;ratioP2;P2;SDS_P1;SDS_P2;PMS_P1;PMS_P2;Temp;Humidity;BMP_temperature;BMP_pressure;BME280_temperature;BME280_humidity;BME280_pressure;Samples;Min_cycle;Max_cycle;Signal;HPM_P1;HPM_P2
2022/09/03 00:01:23;;;;;;;8.65;6.55;;;;;;;7.34;71.27;99955.09;4900884;29;20760;-74
2022/09/03 00:03:54;;;;;;;6.90;5.28;;;;;;;7.28;71.14;99954.50;4916560;29;20129;-72
2022/09/03 00:06:29;;;;;;;4.85;4.03;;;;;;;7.29;71.11;99950.06;4899872;29;20114;-72
2022/09/03 00:09:16;;;;;;;4.78;3.50;;;;;;;7.28;71.16;99949.22;4954710;28;20050;-76
2022/09/03 00:11:52;;;;;;;5.20;2.88;;;;;;;7.23;72.02;99967.13;4954225;28;20537;-76
2022/09/03 00:14:35;;;;;;;3.53;2.58;;;;;;;7.21;71.67;99971.69;5009713;28;20056;-79
2022/09/03 00:17:26;;;;;;;5.25;2.60;;;;;;;7.22;72.35;99973.38;5014703;28;20045;-76
2022/09/03 00:19:56;;;;;;;3.65;2.40;;;;;;;7.11;72.29;99983.69;5005581;28;20053;-79
2022/09/03 00:22:33;;;;;;;4.05;2.88;;;;;;;7.10;72.07;99982.00;5031565;28;20049;-78
2022/09/03 00:25:01;;;;;;;3.70;2.67;;;;;;;7.07;72.54;99982.16;5014596;28;20051;-79
2022/09/03 00:27:32;;;;;;;9.00;4.35;;;;;;;7.07;72.56;99983.94;5016112;28;20051;-78
2022/09/03 00:30:02;;;;;;;3.63;2.78;;;;;;;7.05;72.38;99983.16;5023090;28;20048;-76
2022/09/03 00:32:41;;;;;;;2.53;2.03;;;;;;;7.06;73.09;99985.72;5020226;28;20127;-77
2022/09/03 00:35:15;;;;;;;4.25;2.40;;;;;;;6.99;73.16;99991.44;5018132;28;20094;-76
2022/09/03 00:37:40;;;;;;;3.03;2.72;;;;;;;6.96;73.15;99999.53;5003226;28;20099;-78
2022/09/03 00:40:17;;;;;;;4.95;2.90;;;;;;;6.99;72.98;99994.09;5001610;28;20049;-72
2022/09/03 00:42:56;;;;;;;5.13;2.47;;;;;;;6.99;73.57;100000.25;5018877;28;20041;-71
2022/09/03 00:45:39;;;;;;;11.35;4.65;;;;;;;7.00;72.86;99993.16;5038332;28;20067;-71
2022/09/03 00:48:22;;;;;;;6.93;3.83;;;;;;;6.98;72.92;100003.84;5036472;28;20048;-72
2022/09/03 00:51:05;;;;;;;5.82;2.90;;;;;;;6.97;72.91;100007.41;5038446;28;20059;-70
2022/09/03 00:53:55;;;;;;;4.60;2.90;;;;;;;6.98;72.45;100002.97;5038455;28;20388;-72
2022/09/03 00:56:25;;;;;;;4.47;3.08;;;;;;;6.90;73.01;100009.50;5020743;28;20097;-78
2022/09/03 00:59:20;;;;;;;5.47;3.78;;;;;;;6.88;73.98;100016.66;4984540;28;20049;-79
2022/09/03 01:01:54;;;;;;;6.00;4.00;;;;;;;6.80;73.91;100018.00;5000734;28;20131;-71
2022/09/03 01:04:42;;;;;;;4.85;3.50;;;;;;;6.82;73.84;100030.25;5000720;28;20044;-79
2022/09/03 01:07:20;;;;;;;3.85;3.03;;;;;;;6.76;73.53;100021.75;4984294;28;20402;-70
2022/09/03 01:10:22;;;;;;;6.55;3.80;;;;;;;6.79;73.90;100022.44;5000289;28;20047;-66
2022/09/03 01:13:03;;;;;;;7.03;4.78;;;;;;;6.67;74.02;100020.41;4956363;28;20054;-69
2022/09/03 01:15:53;;;;;;;4.75;3.28;;;;;;;6.68;73.84;100011.53;4956256;28;20650;-71
2022/09/03 01:18:51;;;;;;;5.47;3.25;;;;;;;6.69;74.78;100012.38;4952737;28;20046;-67
2022/09/03 01:21:27;;;;;;;4.28;2.95;;;;;;;6.67;74.67;100011.59;4923892;28;20049;-69
2022/09/03 01:24:19;;;;;;;6.38;3.35;;;;;;;6.67;74.52;100008.94;4940737;28;20483;-72
2022/09/03 01:27:13;;;;;;;4.10;3.25;;;;;;;6.64;74.48;100020.56;4936957;28;20300;-68
2022/09/03 01:30:02;;;;;;;4.47;3.80;;;;;;;6.67;73.78;100019.53;4941304;28;20568;-70
2022/09/03 01:32:41;;;;;;;5.15;3.85;;;;;;;6.58;74.58;100031.44;4941368;28;20050;-68
2022/09/03 01:35:46;;;;;;;3.63;3.30;;;;;;;6.60;73.81;100028.72;4920648;28;20051;-68
2022/09/03 01:38:16;;;;;;;6.00;4.03;;;;;;;6.41;74.92;100019.03;4937468;28;20422;-69
2022/09/03 01:40:52;;;;;;;4.90;3.90;;;;;;;6.39;75.08;100031.50;4953154;28;20042;-69
2022/09/03 01:43:49;;;;;;;5.55;3.40;;;;;;;6.42;75.02;100030.50;4937724;28;20077;-67
2022/09/03 01:46:25;;;;;;;5.28;4.15;;;;;;;6.43;75.24;100035.69;4922559;28;20154;-68
2022/09/03 01:49:05;;;;;;;4.30;3.42;;;;;;;6.41;75.10;100037.59;4935036;28;20054;-68
2022/09/03 01:51:31;;;;;;;6.50;3.60;;;;;;;6.35;74.97;100039.66;4939614;28;20165;-68
2022/09/03 01:54:20;;;;;;;5.40;3.50;;;;;;;6.39;74.95;100043.88;4939869;28;20038;-70
2022/09/03 01:57:06;;;;;;;4.05;3.05;;;;;;;6.34;75.03;100052.03;4944632;28;20050;-69
2022/09/03 01:59:42;;;;;;;5.03;3.75;;;;;;;6.30;75.08;100052.25;4998994;28;20053;-68
2022/09/03 02:02:18;;;;;;;5.22;3.35;;;;;;;6.27;75.28;100058.56;4999335;28;20091;-71
2022/09/03 02:04:59;;;;;;;3.80;3.30;;;;;;;6.30;75.10;100065.50;5025725;28;20055;-71
2022/09/03 02:07:45;;;;;;;4.57;3.28;;;;;;;6.25;75.74;100063.06;5019111;28;20040;-69
2022/09/03 02:10:24;;;;;;;3.80;2.67;;;;;;;6.27;75.19;100074.44;5018666;28;20058;-69
2022/09/03 02:12:55;;;;;;;3.85;2.95;;;;;;;6.25;75.71;100065.72;5036410;28;20040;-78
2022/09/03 02:15:24;;;;;;;6.18;3.25;;;;;;;6.22;75.12;100068.50;5037199;28;20132;-77
2022/09/03 02:17:52;;;;;;;3.83;2.95;;;;;;;6.21;75.47;100071.25;5002534;28;20036;-70
2022/09/03 02:20:24;;;;;;;4.45;3.13;;;;;;;6.24;75.06;100073.72;5036773;28;20068;-71
2022/09/03 02:22:51;;;;;;;4.57;3.55;;;;;;;6.19;75.64;100066.00;5018909;28;20044;-71
2022/09/03 02:25:16;;;;;;;3.67;2.97;;;;;;;6.19;75.47;100072.16;5036555;28;20040;-71
2022/09/03 02:27:42;;;;;;;4.85;3.38;;;;;;;6.17;75.15;100073.16;5036119;28;20036;-71
2022/09/03 02:30:08;;;;;;;6.53;3.75;;;;;;;6.16;75.81;100071.44;5000462;28;20051;-70
2022/09/03 02:32:33;;;;;;;8.38;3.60;;;;;;;6.16;75.42;100072.31;5036421;28;20090;-70
2022/09/03 02:34:58;;;;;;;4.25;2.90;;;;;;;6.13;75.74;100076.88;5036302;28;20044;-71
2022/09/03 02:37:23;;;;;;;3.13;2.50;;;;;;;6.12;75.15;100078.66;5037968;28;20036;-70
2022/09/03 02:39:50;;;;;;;7.75;4.25;;;;;;;6.12;75.29;100083.09;5019372;28;20040;-72
2022/09/03 02:42:16;;;;;;;5.72;3.33;;;;;;;6.07;75.41;100075.38;5036410;28;20047;-71
2022/09/03 02:44:45;;;;;;;5.53;3.25;;;;;;;6.11;75.36;100076.94;5034593;28;20047;-72
2022/09/03 02:47:11;;;;;;;4.55;3.05;;;;;;;6.11;75.75;100084.00;5036590;28;20037;-67
2022/09/03 02:49:35;;;;;;;4.72;3.45;;;;;;;6.10;75.35;100090.22;5018375;28;20048;-65
2022/09/03 02:52:10;;;;;;;5.47;3.08;;;;;;;6.07;75.59;100085.97;5033699;28;20181;-65
2022/09/03 02:54:38;;;;;;;5.80;3.28;;;;;;;6.06;75.68;100083.38;5035820;28;20147;-66
2022/09/03 02:57:03;;;;;;;7.57;2.97;;;;;;;6.08;76.29;100084.19;5007247;28;20105;-67
2022/09/03 02:59:28;;;;;;;4.50;3.03;;;;;;;6.11;75.70;100090.16;5037869;28;20083;-67
2022/09/03 03:01:54;;;;;;;6.28;3.00;;;;;;;6.12;75.68;100088.38;5021114;28;20068;-67
2022/09/03 03:04:20;;;;;;;5.28;2.85;;;;;;;6.14;75.91;100094.47;5055668;28;20056;-68
2022/09/03 03:06:44;;;;;;;10.98;3.10;;;;;;;6.14;76.04;100092.69;5037484;28;20127;-68
2022/09/03 03:09:09;;;;;;;4.78;3.22;;;;;;;6.22;75.87;100102.03;5055392;28;20132;-68
2022/09/03 03:11:35;;;;;;;4.05;3.38;;;;;;;6.30;75.78;100099.94;5054173;28;20067;-67
2022/09/03 03:14:00;;;;;;;10.50;3.40;;;;;;;6.45;76.14;100099.19;5037048;28;20042;-68
2022/09/03 03:16:25;;;;;;;2.90;2.63;;;;;;;6.63;76.03;100097.47;5003807;28;20040;-67
2022/09/03 03:18:51;;;;;;;4.85;3.00;;;;;;;6.77;75.03;100100.31;5055932;28;20105;-67
2022/09/03 03:21:17;;;;;;;8.13;3.08;;;;;;;6.93;74.64;100101.25;5055705;28;20177;-68
2022/09/03 03:23:42;;;;;;;4.60;2.72;;;;;;;7.09;73.98;100104.03;5021513;28;20044;-68
2022/09/03 03:26:10;;;;;;;6.50;3.22;;;;;;;7.25;73.73;100113.78;5054967;28;20044;-68
2022/09/03 03:28:35;;;;;;;5.72;2.90;;;;;;;7.40;72.97;100112.16;5020251;28;20071;-67
2022/09/03 03:31:15;;;;;;;7.60;3.47;;;;;;;7.61;72.53;100105.72;5036641;28;20035;-68
2022/09/03 03:33:40;;;;;;;6.65;3.50;;;;;;;7.69;71.14;100112.44;5054977;28;20043;-68
2022/09/03 03:36:08;;;;;;;3.92;3.10;;;;;;;7.80;71.05;100115.38;5055175;28;20123;-67
2022/09/03 03:38:35;;;;;;;5.65;3.20;;;;;;;7.92;70.67;100128.00;5055036;28;20047;-67
2022/09/03 03:41:09;;;;;;;4.75;3.45;;;;;;;8.09;69.85;100117.38;5055235;28;20051;-69
2022/09/03 03:43:34;;;;;;;5.93;3.90;;;;;;;8.10;68.97;100113.78;5055232;28;20115;-68
2022/09/03 03:45:59;;;;;;;7.60;3.30;;;;;;;8.23;68.64;100120.13;5036751;28;20036;-67
2022/09/03 03:48:25;;;;;;;5.75;3.10;;;;;;;8.35;68.61;100124.78;5036555;28;20052;-69
2022/09/03 03:50:50;;;;;;;4.72;3.33;;;;;;;8.53;68.11;100122.06;5036717;28;20097;-67
2022/09/03 03:53:15;;;;;;;4.55;3.40;;;;;;;8.69;67.94;100129.09;5036921;28;20048;-66
2022/09/03 03:55:40;;;;;;;6.43;3.30;;;;;;;8.76;66.84;100123.44;5054699;28;20410;-66
2022/09/03 03:58:05;;;;;;;4.40;3.33;;;;;;;8.89;66.74;100119.16;5042262;28;20065;-68
2022/09/03 04:00:30;;;;;;;5.30;3.47;;;;;;;9.03;66.42;100125.38;5022091;28;20045;-68
2022/09/03 04:02:55;;;;;;;4.88;3.47;;;;;;;9.14;65.95;100129.25;5036744;28;20491;-69
2022/09/03 04:05:19;;;;;;;13.07;4.03;;;;;;;9.20;64.70;100120.91;5017596;28;20040;-69
2022/09/03 04:07:44;;;;;;;4.57;3.35;;;;;;;9.35;65.14;100139.50;5035332;28;20052;-69
2022/09/03 04:10:09;;;;;;;5.00;3.17;;;;;;;9.46;63.98;100133.53;5036506;28;20067;-70
2022/09/03 04:12:35;;;;;;;5.68;3.65;;;;;;;9.57;64.14;100133.75;5016544;28;20083;-70
2022/09/03 04:15:01;;;;;;;4.85;4.20;;;;;;;9.70;63.67;100131.22;5034400;28;20117;-69
2022/09/03 04:17:27;;;;;;;5.30;3.80;;;;;;;9.79;63.66;100141.31;5034748;28;20063;-70
2022/09/03 04:19:51;;;;;;;4.03;3.35;;;;;;;9.82;63.13;100139.31;5016118;28;20033;-68
2022/09/03 04:22:17;;;;;;;4.43;3.70;;;;;;;9.96;62.62;100146.47;5034525;28;20044;-69
2022/09/03 04:24:42;;;;;;;7.00;4.20;;;;;;;10.06;62.32;100138.75;5016366;28;20045;-70
2022/09/03 04:27:07;;;;;;;6.22;3.95;;;;;;;10.11;61.94;100150.88;5034453;28;20055;-69
2022/09/03 04:29:33;;;;;;;4.10;3.45;;;;;;;10.14;62.28;100148.03;5034588;28;20044;-71
2022/09/03 04:34:42;;;;;;;4.70;3.35;;;;;;;10.49;61.75;100145.00;5017050;28;20048;-70
2022/09/03 04:37:08;;;;;;;6.10;3.92;;;;;;;10.68;59.88;100140.19;5016591;28;20106;-70
2022/09/03 04:39:33;;;;;;;5.68;3.88;;;;;;;10.90;60.21;100137.00;5035560;28;20044;-67
2022/09/03 04:41:58;;;;;;;3.90;3.50;;;;;;;11.12;59.50;100150.66;5034499;28;20045;-68
2022/09/03 04:44:22;;;;;;;9.82;3.90;;;;;;;11.27;58.60;100148.81;5034362;28;20044;-67
2022/09/03 04:46:47;;;;;;;5.57;4.30;;;;;;;11.38;58.56;100150.75;5034345;28;20098;-67
2022/09/03 04:49:12;;;;;;;7.72;3.78;;;;;;;11.45;57.55;100146.72;5016860;28;20101;-69
2022/09/03 04:51:37;;;;;;;4.88;3.42;;;;;;;11.56;57.27;100149.50;5034589;28;20476;-67
2022/09/03 04:54:02;;;;;;;6.68;3.80;;;;;;;11.74;57.49;100150.91;5016832;28;20477;-67
2022/09/03 04:56:30;;;;;;;6.13;4.10;;;;;;;11.95;57.11;100144.16;5037060;28;20071;-67
2022/09/03 04:59:00;;;;;;;3.83;3.20;;;;;;;12.21;56.11;100146.81;5034973;28;20135;-67
2022/09/03 05:01:27;;;;;;;6.93;3.60;;;;;;;12.36;55.36;100138.56;5036152;28;20048;-67
2022/09/03 05:03:51;;;;;;;4.32;3.50;;;;;;;12.38;54.82;100143.81;5017734;28;20049;-67
2022/09/03 05:06:17;;;;;;;6.82;3.72;;;;;;;12.47;54.40;100148.50;5018521;28;20525;-67
2022/09/03 05:08:43;;;;;;;3.38;2.97;;;;;;;12.47;54.39;100153.84;5017203;28;20052;-67
2022/09/03 05:11:08;;;;;;;3.80;3.15;;;;;;;12.47;54.59;100150.34;5035013;28;20074;-69
2022/09/03 05:13:35;;;;;;;5.65;3.22;;;;;;;12.46;54.28;100154.81;5034322;28;20080;-67
2022/09/03 05:16:02;;;;;;;5.03;3.20;;;;;;;12.53;54.53;100155.22;5019989;28;20044;-69
2022/09/03 05:18:28;;;;;;;3.55;2.80;;;;;;;12.80;54.27;100153.25;5003657;28;20457;-68
2022/09/03 05:21:00;;;;;;;4.30;3.20;;;;;;;13.15;53.24;100163.25;5020979;28;20040;-68
2022/09/03 05:23:26;;;;;;;3.42;3.05;;;;;;;13.36;52.22;100165.19;5024132;28;20041;-69
2022/09/03 05:25:57;;;;;;;3.63;3.20;;;;;;;13.61;52.79;100169.56;5039161;28;20072;-69
2022/09/03 05:28:21;;;;;;;4.55;3.70;;;;;;;13.81;51.41;100160.84;5038413;28;20456;-68
2022/09/03 05:30:47;;;;;;;7.60;3.13;;;;;;;14.10;50.74;100166.66;5022191;28;20067;-69
2022/09/03 05:33:14;;;;;;;3.58;2.70;;;;;;;14.16;50.08;100170.66;5022307;28;20044;-69
2022/09/03 05:35:40;;;;;;;7.50;3.53;;;;;;;14.35;50.01;100172.75;5005009;28;20395;-68
2022/09/03 05:38:06;;;;;;;5.30;3.38;;;;;;;14.52;49.82;100167.81;5020784;28;20064;-68
2022/09/03 05:40:30;;;;;;;4.35;3.00;;;;;;;14.75;49.10;100163.28;5038400;28;20062;-69
2022/09/03 05:42:57;;;;;;;3.72;2.78;;;;;;;15.13;48.61;100172.72;5020139;28;20643;-69
2022/09/03 05:45:22;;;;;;;4.10;3.42;;;;;;;15.87;47.17;100176.41;5037289;28;20040;-68
2022/09/03 05:47:46;;;;;;;10.48;4.20;;;;;;;16.90;44.62;100171.91;5002956;28;20051;-67
2022/09/03 05:50:11;;;;;;;3.28;2.92;;;;;;;18.06;42.14;100176.41;5019214;28;20067;-68
2022/09/03 05:52:36;;;;;;;8.15;3.72;;;;;;;19.12;39.41;100169.78;5019753;28;20048;-67
2022/09/03 05:55:02;;;;;;;4.43;3.70;;;;;;;20.07;38.01;100177.34;5023966;28;20405;-68
2022/09/03 05:57:29;;;;;;;3.85;3.08;;;;;;;21.07;36.27;100171.34;5042843;28;20063;-67
2022/09/03 05:59:54;;;;;;;4.78;3.72;;;;;;;21.93;33.61;100186.28;5004385;28;20041;-66
2022/09/03 06:02:19;;;;;;;3.75;2.58;;;;;;;22.56;32.78;100182.88;5020063;28;20636;-67
2022/09/03 06:04:43;;;;;;;3.35;2.90;;;;;;;23.30;31.73;100188.88;5019180;28;20504;-67
2022/09/03 06:07:09;;;;;;;9.88;2.92;;;;;;;23.71;30.48;100181.34;5018915;28;20056;-66
2022/09/03 06:09:33;;;;;;;2.80;2.33;;;;;;;24.07;29.61;100187.03;5037140;28;20105;-66
2022/09/03 06:11:58;;;;;;;3.25;2.90;;;;;;;24.66;28.90;100189.88;5019285;28;20052;-66
2022/09/03 06:14:24;;;;;;;2.42;2.22;;;;;;;25.30;27.54;100182.81;5037040;28;20473;-66
2022/09/03 06:16:49;;;;;;;4.05;3.17;;;;;;;25.75;27.13;100181.66;5018126;28;20046;-66
2022/09/03 06:19:14;;;;;;;3.83;2.63;;;;;;;26.23;26.55;100193.69;5036664;28;20044;-68
2022/09/03 06:21:44;;;;;;;3.90;2.45;;;;;;;26.77;25.50;100264.19;5036557;28;20457;-67
2022/09/03 06:24:11;;;;;;;2.72;2.55;;;;;;;27.26;24.90;100264.09;5037020;28;20453;-65
2022/09/03 06:26:36;;;;;;;3.03;2.83;;;;;;;27.86;24.44;100198.63;5035552;28;20048;-68
2022/09/03 06:29:01;;;;;;;3.80;2.70;;;;;;;28.35;23.70;100188.13;5036968;28;20048;-67
2022/09/03 06:31:26;;;;;;;2.25;2.15;;;;;;;29.07;22.67;100200.06;5018721;28;20097;-68
2022/09/03 06:33:53;;;;;;;2.55;2.35;;;;;;;29.41;22.32;100212.66;5036665;28;20068;-67
2022/09/03 06:36:19;;;;;;;3.40;3.03;;;;;;;29.63;22.20;100204.94;5018746;28;20040;-67
2022/09/03 06:38:45;;;;;;;2.95;2.63;;;;;;;29.87;21.44;100205.00;5036903;28;20487;-68
2022/09/03 06:41:12;;;;;;;3.00;2.70;;;;;;;30.43;21.30;100206.91;5018609;28;20048;-67
2022/09/03 06:43:40;;;;;;;4.93;2.92;;;;;;;31.04;20.21;100211.63;5018161;28;20040;-67
2022/09/03 06:46:08;;;;;;;5.35;3.42;;;;;;;31.45;19.44;100212.88;5036596;28;20044;-68
2022/09/03 06:48:34;;;;;;;6.03;2.70;;;;;;;31.62;19.71;100197.34;5001962;28;20044;-67
2022/09/03 06:51:04;;;;;;;3.10;2.75;;;;;;;32.08;18.80;100208.56;5001757;28;20036;-67
2022/09/03 06:53:37;;;;;;;2.85;2.65;;;;;;;32.89;18.32;100208.94;5018257;28;20036;-67
2022/09/03 06:56:07;;;;;;;3.28;2.97;;;;;;;33.45;17.73;100217.38;5018148;28;20076;-68
2022/09/03 06:58:38;;;;;;;7.53;2.78;;;;;;;34.05;17.01;100210.56;5018245;28;20582;-67
2022/09/03 07:01:09;;;;;;;3.50;3.13;;;;;;;34.45;16.47;100215.97;5001852;28;20040;-68
2022/09/03 07:03:35;;;;;;;3.47;2.95;;;;;;;34.97;16.11;100219.31;5001702;28;20044;-67
2022/09/03 07:06:01;;;;;;;5.10;3.60;;;;;;;35.51;15.66;100222.25;5018470;28;20094;-70
2022/09/03 07:08:26;;;;;;;4.40;3.60;;;;;;;36.03;15.38;100215.06;5036549;28;20067;-70
2022/09/03 07:10:51;;;;;;;4.68;3.40;;;;;;;36.53;14.86;100218.59;5036387;28;20521;-71
2022/09/03 07:13:17;;;;;;;3.67;3.38;;;;;;;36.89;14.61;100219.72;5018529;28;20044;-70
2022/09/03 07:15:42;;;;;;;3.95;3.60;;;;;;;36.86;14.39;100220.25;5018605;28;20044;-70
2022/09/03 07:18:07;;;;;;;8.40;3.60;;;;;;;36.18;14.59;100217.16;5018403;28;20036;-70
2022/09/03 07:20:34;;;;;;;3.50;3.20;;;;;;;36.09;14.71;100217.91;5018436;28;20445;-70
2022/09/03 07:22:58;;;;;;;3.88;3.45;;;;;;;36.58;14.36;100218.63;5045409;28;20039;-71
2022/09/03 07:25:25;;;;;;;4.45;4.05;;;;;;;37.12;13.75;100232.38;5037314;28;20551;-72
2022/09/03 07:27:51;;;;;;;3.35;3.15;;;;;;;37.08;14.25;100226.50;5018033;28;20048;-69
2022/09/03 07:30:18;;;;;;;4.28;3.28;;;;;;;37.49;13.58;100226.69;5017845;28;20135;-70
2022/09/03 07:32:43;;;;;;;5.13;3.80;;;;;;;38.31;13.11;100223.88;5001780;28;20032;-70
2022/09/03 07:35:08;;;;;;;4.72;3.90;;;;;;;39.02;12.66;100225.81;5036286;28;20069;-71
2022/09/03 07:37:34;;;;;;;4.03;3.70;;;;;;;39.35;12.20;100218.72;5017819;28;20040;-71
2022/09/03 07:39:58;;;;;;;3.97;3.67;;;;;;;39.19;12.42;100217.94;5018128;28;20164;-71
2022/09/03 07:42:25;;;;;;;9.38;3.70;;;;;;;39.40;11.92;100218.69;5017559;28;20063;-71
2022/09/03 07:44:50;;;;;;;4.15;3.90;;;;;;;39.57;12.31;100222.00;5000817;28;20067;-70
2022/09/03 07:47:17;;;;;;;4.45;3.55;;;;;;;39.89;11.98;100227.13;5017532;28;20141;-69
2022/09/03 07:49:41;;;;;;;4.10;3.80;;;;;;;40.34;11.68;100217.63;5035332;28;20044;-69
2022/09/03 07:52:06;;;;;;;4.45;4.05;;;;;;;40.74;11.38;100224.00;5017404;28;20037;-69
2022/09/03 07:54:31;;;;;;;12.80;5.22;;;;;;;41.16;11.10;100229.72;5017834;28;20048;-70
2022/09/03 07:56:57;;;;;;;4.15;3.80;;;;;;;41.08;10.96;100219.16;5004003;28;20056;-70
2022/09/03 07:59:22;;;;;;;4.15;3.85;;;;;;;40.63;11.20;100214.84;5055923;28;20043;-69
2022/09/03 08:01:47;;;;;;;4.30;3.95;;;;;;;40.48;11.44;100215.81;5004243;28;20444;-69
2022/09/03 08:04:12;;;;;;;4.47;4.18;;;;;;;40.10;11.31;100216.66;5041054;28;20384;-70
2022/09/03 08:06:38;;;;;;;4.32;4.03;;;;;;;40.50;10.90;100216.38;5056681;28;20126;-70
2022/09/03 08:09:07;;;;;;;4.90;4.50;;;;;;;41.25;10.65;100215.91;5020930;28;20415;-69
2022/09/03 08:11:36;;;;;;;4.72;4.32;;;;;;;41.69;10.27;100210.00;5055376;28;20051;-70
2022/09/03 08:14:07;;;;;;;5.00;4.70;;;;;;;41.91;9.84;100215.84;5055242;28;20581;-71
2022/09/03 08:16:41;;;;;;;4.50;4.15;;;;;;;41.95;10.05;100216.94;5037457;28;20044;-70
2022/09/03 08:19:06;;;;;;;4.28;3.92;;;;;;;39.70;10.77;100215.78;5054133;28;20056;-70
2022/09/03 08:21:31;;;;;;;6.95;3.75;;;;;;;38.75;11.58;100214.94;5037282;28;20036;-68
2022/09/03 08:24:02;;;;;;;5.03;3.85;;;;;;;37.70;12.28;100257.13;5055445;28;20158;-70
2022/09/03 08:26:36;;;;;;;4.88;3.67;;;;;;;38.09;12.30;100199.09;5037379;28;20118;-71
2022/09/03 08:29:02;;;;;;;6.35;3.65;;;;;;;38.30;12.17;100194.34;5055344;28;20458;-70
2022/09/03 08:31:28;;;;;;;3.95;3.60;;;;;;;37.31;12.52;100191.88;5036863;28;20053;-70
2022/09/03 08:33:55;;;;;;;5.47;4.35;;;;;;;36.84;12.76;100192.72;5020472;28;20062;-70
2022/09/03 08:36:23;;;;;;;8.38;3.65;;;;;;;37.64;12.61;100194.25;5055233;28;20040;-71
2022/09/03 08:38:54;;;;;;;7.75;3.70;;;;;;;38.87;12.04;100195.97;5054909;28;20410;-70
2022/09/03 08:41:28;;;;;;;4.40;3.90;;;;;;;39.68;11.25;100201.28;5037070;28;20550;-70
2022/09/03 08:44:16;;;;;;;4.85;4.18;;;;;;;39.89;11.09;100199.22;5055103;28;20044;-70
2022/09/03 08:46:52;;;;;;;5.47;4.22;;;;;;;40.40;10.82;100198.84;5055202;28;20036;-69
2022/09/03 08:49:46;;;;;;;4.38;3.97;;;;;;;42.17;10.20;100187.47;5020113;28;20052;-69
2022/09/03 08:52:37;;;;;;;6.25;4.18;;;;;;;41.15;9.97;100204.81;5032049;28;20592;-70
2022/09/03 08:55:08;;;;;;;9.45;4.53;;;;;;;38.35;11.57;100191.56;5041064;28;20498;-70
2022/09/03 08:57:42;;;;;;;3.97;3.63;;;;;;;36.14;12.80;100192.97;5050627;28;20053;-71
2022/09/03 09:00:07;;;;;;;4.05;3.40;;;;;;;35.06;13.44;100190.03;5038917;28;20076;-70
2022/09/03 09:02:41;;;;;;;3.50;3.30;;;;;;;34.18;14.01;100183.41;5004507;28;20036;-70
2022/09/03 09:05:38;;;;;;;3.97;3.67;;;;;;;34.61;14.39;100240.06;5020876;28;20129;-69
2022/09/03 09:08:13;;;;;;;4.53;3.47;;;;;;;35.87;13.54;100179.97;5038102;28;20045;-70
2022/09/03 09:10:48;;;;;;;8.15;4.32;;;;;;;37.46;11.86;100180.81;5038728;28;20045;-69
2022/09/03 09:13:15;;;;;;;6.20;3.88;;;;;;;38.41;11.07;100178.47;5020511;28;20044;-71
2022/09/03 09:15:53;;;;;;;6.05;3.65;;;;;;;39.12;10.98;100186.72;5020687;28;20052;-71
2022/09/03 09:18:53;;;;;;;5.13;3.58;;;;;;;39.36;11.28;100189.69;5021302;28;20040;-70
2022/09/03 09:21:26;;;;;;;4.20;3.90;;;;;;;38.94;10.86;100179.81;5053308;28;20048;-71
2022/09/03 09:23:52;;;;;;;6.47;4.32;;;;;;;39.18;10.57;100166.06;5020643;28;20040;-71
2022/09/03 09:26:22;;;;;;;5.25;3.88;;;;;;;39.66;9.99;100183.97;5038321;28;20410;-70
2022/09/03 09:29:13;;;;;;;9.80;4.43;;;;;;;40.10;10.28;100172.81;5037848;28;20048;-71
2022/09/03 09:31:43;;;;;;;5.50;3.90;;;;;;;40.69;9.80;100177.31;5037976;28;20037;-71
2022/09/03 09:34:08;;;;;;;15.93;4.05;;;;;;;41.56;8.85;100177.16;5020044;28;20044;-70
2022/09/03 09:36:49;;;;;;;4.20;3.80;;;;;;;42.09;8.89;100168.56;5020373;28;20045;-70
2022/09/03 09:39:14;;;;;;;3.95;3.65;;;;;;;40.61;9.33;100170.41;5037964;28;20037;-73
2022/09/03 09:41:39;;;;;;;4.10;3.80;;;;;;;39.36;10.09;100176.59;5003519;28;20041;-73
2022/09/03 09:44:04;;;;;;;3.67;3.38;;;;;;;37.97;10.92;100167.84;5038104;28;20098;-71
2022/09/03 09:46:38;;;;;;;3.65;3.38;;;;;;;36.28;11.91;100167.31;5037525;28;20106;-70
2022/09/03 09:49:07;;;;;;;3.67;3.33;;;;;;;33.72;13.64;100154.06;5037854;28;20052;-70
2022/09/03 09:51:32;;;;;;;5.13;4.13;;;;;;;32.74;14.33;100160.56;5037645;28;20045;-71
2022/09/03 09:54:20;;;;;;;4.20;3.80;;;;;;;32.86;14.30;100154.19;5036994;28;20105;-70
2022/09/03 09:56:59;;;;;;;6.43;3.30;;;;;;;33.70;14.02;100159.00;5004711;28;20396;-70
2022/09/03 09:59:23;;;;;;;4.35;3.55;;;;;;;35.54;12.60;100147.69;4999547;28;20913;-71
2022/09/03 10:01:48;;;;;;;5.50;3.83;;;;;;;37.69;11.16;100148.91;5015824;28;20056;-71
2022/09/03 10:04:26;;;;;;;4.68;3.60;;;;;;;39.63;10.23;100153.84;5021451;28;20047;-71
2022/09/03 10:06:57;;;;;;;4.15;3.67;;;;;;;40.15;9.05;100146.78;5022288;28;20384;-71
2022/09/03 10:09:28;;;;;;;7.45;4.32;;;;;;;39.72;9.46;100163.28;5017363;28;20049;-71
2022/09/03 10:12:03;;;;;;;6.75;3.45;;;;;;;38.42;10.82;100153.09;4998453;28;20463;-72
2022/09/03 10:14:41;;;;;;;4.68;3.30;;;;;;;35.97;11.63;100149.53;5016947;28;20472;-72
2022/09/03 10:18:04;;;;;;;5.03;4.05;;;;;;;33.96;13.42;100146.50;4999165;28;20045;-71
2022/09/03 10:20:52;;;;;;;4.65;3.35;;;;;;;31.49;15.42;100143.25;4920392;28;20453;-71
2022/09/03 10:23:23;;;;;;;7.57;2.80;;;;;;;29.15;16.76;100144.91;4904437;28;20174;-70
2022/09/03 10:25:56;;;;;;;2.67;2.28;;;;;;;27.92;17.88;100148.44;4936457;28;20089;-74
2022/09/03 10:28:25;;;;;;;4.00;2.30;;;;;;;26.50;19.55;100147.44;4935894;28;20039;-70
2022/09/03 10:31:30;;;;;;;5.15;2.83;;;;;;;25.73;20.41;100144.69;4919804;28;20392;-70
2022/09/03 10:34:19;;;;;;;4.60;2.72;;;;;;;24.73;21.59;100149.91;4937435;28;20242;-71
2022/09/03 10:36:53;;;;;;;9.38;3.20;;;;;;;24.04;22.79;100160.16;4920532;28;20173;-72
2022/09/03 10:39:39;;;;;;;6.60;2.35;;;;;;;23.81;22.76;100144.69;4936055;28;20046;-70
2022/09/03 10:42:22;;;;;;;7.10;2.47;;;;;;;23.15;23.92;100156.13;4935971;28;20093;-71
2022/09/03 10:45:09;;;;;;;2.95;1.50;;;;;;;23.07;23.46;100157.03;4937405;28;20054;-69
2022/09/03 10:47:52;;;;;;;4.80;1.85;;;;;;;22.76;24.83;100154.28;4920345;28;20042;-69
2022/09/03 10:50:30;;;;;;;5.53;2.40;;;;;;;22.88;24.90;100153.91;4943419;28;20045;-69
2022/09/03 10:53:20;;;;;;;3.88;1.50;;;;;;;22.96;24.29;100156.59;4998065;28;20503;-69
2022/09/03 10:56:01;;;;;;;3.92;2.10;;;;;;;22.58;25.62;100153.63;5002619;28;20591;-67
2022/09/03 10:59:00;;;;;;;1.95;1.80;;;;;;;22.60;24.60;100145.28;4998179;28;20064;-67
2022/09/03 11:01:57;;;;;;;4.30;1.98;;;;;;;22.45;24.43;100153.34;5016712;28;20114;-68
2022/09/03 11:05:08;;;;;;;1.52;1.42;;;;;;;22.36;24.28;100149.78;5014728;28;20045;-68
2022/09/03 11:07:42;;;;;;;5.00;2.65;;;;;;;21.97;25.23;100149.63;5014716;28;20045;-68
2022/09/03 11:10:25;;;;;;;6.05;1.90;;;;;;;21.64;25.24;100145.22;5015619;28;20049;-68
2022/09/03 11:13:10;;;;;;;5.07;1.77;;;;;;;21.33;25.89;100143.13;5014145;28;20048;-67
2022/09/03 11:15:41;;;;;;;21.67;2.95;;;;;;;21.05;27.12;100141.69;5018726;28;20040;-68
2022/09/03 11:18:20;;;;;;;3.42;2.13;;;;;;;20.91;26.64;100140.44;5002520;28;20095;-69
2022/09/03 11:20:48;;;;;;;3.28;1.60;;;;;;;20.54;27.66;100146.19;4997570;28;20080;-71
2022/09/03 11:23:13;;;;;;;12.68;3.88;;;;;;;20.26;27.97;100144.66;5014802;28;20041;-68
2022/09/03 11:25:50;;;;;;;5.63;2.35;;;;;;;20.22;28.25;100154.09;5017098;28;20139;-68
2022/09/03 11:28:18;;;;;;;21.98;4.43;;;;;;;19.99;29.24;100151.03;5035640;28;20039;-69
2022/09/03 11:31:04;;;;;;;2.47;1.73;;;;;;;19.93;29.14;100133.59;5018467;28;20052;-71
2022/09/03 11:33:32;;;;;;;4.80;2.03;;;;;;;19.79;30.04;100136.84;5034977;28;20078;-68
2022/09/03 11:36:00;;;;;;;3.30;2.03;;;;;;;19.68;30.37;100133.53;5035532;28;20040;-69
2022/09/03 11:38:29;;;;;;;3.55;1.65;;;;;;;19.55;29.73;100131.22;5034894;28;20487;-69
2022/09/03 11:41:03;;;;;;;6.50;2.35;;;;;;;19.54;29.73;100134.94;5017102;28;20105;-69
2022/09/03 11:43:30;;;;;;;2.25;1.58;;;;;;;19.44;29.76;100121.47;5002730;28;20032;-70
2022/09/03 11:46:11;;;;;;;5.53;1.77;;;;;;;19.64;29.26;100124.88;5041791;28;20052;-70
2022/09/03 11:48:44;;;;;;;4.03;1.83;;;;;;;19.58;29.28;100106.59;5023326;28;20041;-70
2022/09/03 11:51:31;;;;;;;4.88;1.58;;;;;;;19.79;28.73;100112.50;5018312;28;20040;-66
2022/09/03 11:54:00;;;;;;;1.95;1.23;;;;;;;19.66;28.57;100106.66;5035574;28;20052;-67